Time;durP1;ratioP1;P1;durP2;ratioP2;P2;SDS_P1;SDS_P2;PMS_P1;PMS_P2;Temp;Humidity;BMP_temperature;BMP_pressure;BME280_temperature;BME280_humidity;BME280_pressure;Samples;Min_cycle;Max_cycle;Signal;HPM_P1;HPM_P2
2022/03/10 00:01:20;;;;;;;7.68;1.67;;;;;;;8.32;100.00;100864.84;5028639;28;20597;-61
2022/03/10 00:03:46;;;;;;;1.17;0.80;;;;;;;8.30;100.00;100869.47;5025536;28;20029;-61
2022/03/10 00:06:11;;;;;;;1.45;0.85;;;;;;;8.36;100.00;100881.19;5033007;28;20045;-60
2022/03/10 00:08:36;;;;;;;3.83;0.93;;;;;;;8.36;100.00;100876.72;5039003;28;20327;-58
2022/03/10 00:11:02;;;;;;;4.07;0.88;;;;;;;8.39;100.00;100881.72;5026238;28;20084;-62
2022/03/10 00:13:30;;;;;;;3.83;1.23;;;;;;;8.47;100.00;100872.97;5025527;28;20032;-62
2022/03/10 00:15:56;;;;;;;3.45;0.77;;;;;;;8.51;100.00;100874.25;5042488;28;20230;-61
2022/03/10 00:18:21;;;;;;;4.88;1.23;;;;;;;8.55;100.00;100866.84;5033853;28;20075;-62
2022/03/10 00:20:46;;;;;;;2.97;0.60;;;;;;;8.62;100.00;100868.66;5026824;28;20449;-59
2022/03/10 00:23:12;;;;;;;2.40;1.23;;;;;;;8.66;100.00;100871.75;5026370;28;20103;-59
2022/03/10 00:25:37;;;;;;;3.10;0.82;;;;;;;8.66;100.00;100869.94;5034189;28;20038;-59
2022/03/10 00:28:03;;;;;;;2.63;0.90;;;;;;;8.64;100.00;100871.91;5025568;28;20044;-58
2022/03/10 00:30:28;;;;;;;5.68;0.93;;;;;;;8.67;100.00;100870.75;5039380;28;20048;-59
2022/03/10 00:32:54;;;;;;;3.60;0.93;;;;;;;8.66;100.00;100882.34;5038614;28;20063;-60
2022/03/10 00:35:22;;;;;;;2.60;0.77;;;;;;;8.70;100.00;100881.03;5039878;28;20029;-58
2022/03/10 00:37:48;;;;;;;5.80;1.40;;;;;;;8.77;100.00;100884.63;5040743;28;20036;-55
2022/03/10 00:40:15;;;;;;;2.67;0.90;;;;;;;8.84;100.00;100882.13;5028068;28;20034;-58
2022/03/10 00:42:41;;;;;;;4.35;0.93;;;;;;;8.82;100.00;100882.28;5025578;28;20037;-59
2022/03/10 00:45:08;;;;;;;1.30;0.63;;;;;;;8.82;100.00;100886.75;5027985;28;20029;-59
2022/03/10 00:47:34;;;;;;;7.05;1.90;;;;;;;8.71;100.00;100882.66;5034722;28;20033;-59
2022/03/10 00:50:00;;;;;;;2.53;0.47;;;;;;;8.61;100.00;100895.22;5032028;28;20068;-61
2022/03/10 00:52:27;;;;;;;3.63;0.70;;;;;;;8.54;100.00;100895.06;5040118;28;20431;-60
2022/03/10 00:54:52;;;;;;;1.52;0.57;;;;;;;8.46;100.00;100897.72;5030349;28;20084;-57
2022/03/10 00:57:17;;;;;;;1.88;0.80;;;;;;;8.28;100.00;100895.22;5043288;28;20119;-58
2022/03/10 00:59:43;;;;;;;4.72;0.50;;;;;;;8.17;100.00;100896.38;5036735;28;20033;-61
2022/03/10 01:02:08;;;;;;;3.55;1.60;;;;;;;8.08;100.00;100889.47;5032165;28;20033;-59
2022/03/10 01:04:33;;;;;;;4.38;1.10;;;;;;;8.11;100.00;100894.41;5028464;28;20108;-59
2022/03/10 01:06:59;;;;;;;3.25;1.08;;;;;;;8.11;100.00;100896.25;5025484;28;20076;-57
2022/03/10 01:09:24;;;;;;;2.20;0.70;;;;;;;8.09;100.00;100899.84;5036771;28;20033;-58
2022/03/10 01:11:50;;;;;;;7.72;1.67;;;;;;;8.07;100.00;100903.66;5041644;28;20029;-57
2022/03/10 01:14:15;;;;;;;2.17;1.17;;;;;;;7.94;100.00;100900.66;5030274;28;20494;-57
2022/03/10 01:16:40;;;;;;;2.95;0.73;;;;;;;7.87;100.00;100908.41;5026584;28;20113;-59
2022/03/10 01:19:08;;;;;;;3.88;0.45;;;;;;;7.91;100.00;100903.66;5024996;28;20479;-58
2022/03/10 01:21:33;;;;;;;1.98;1.13;;;;;;;7.86;100.00;100906.75;5029831;28;20039;-56
2022/03/10 01:23:58;;;;;;;2.83;0.98;;;;;;;7.80;100.00;100905.59;5037748;28;20029;-56
2022/03/10 01:26:24;;;;;;;3.10;1.27;;;;;;;7.79;100.00;100906.56;5039888;28;20033;-58
2022/03/10 01:28:49;;;;;;;4.90;1.50;;;;;;;7.82;100.00;100910.72;5033789;28;20033;-60
2022/03/10 01:31:15;;;;;;;5.32;2.05;;;;;;;7.92;100.00;100905.28;5041462;28;20025;-59
2022/03/10 01:33:40;;;;;;;9.30;1.23;;;;;;;7.92;100.00;100900.00;5028486;28;20107;-58
2022/03/10 01:36:05;;;;;;;2.42;0.70;;;;;;;7.91;100.00;100903.66;5028816;28;20500;-57
2022/03/10 01:38:31;;;;;;;2.45;1.00;;;;;;;7.90;100.00;100900.19;5050141;28;20388;-54
2022/03/10 01:40:56;;;;;;;4.55;1.17;;;;;;;7.79;100.00;100905.75;5031416;28;20048;-54
2022/03/10 01:43:21;;;;;;;3.50;0.60;;;;;;;7.75;100.00;100900.00;5031579;28;20457;-60
2022/03/10 01:45:47;;;;;;;4.55;1.85;;;;;;;7.76;100.00;100901.63;5044850;28;20034;-60
2022/03/10 01:48:12;;;;;;;3.75;0.55;;;;;;;7.73;100.00;100906.41;5045752;28;20047;-60
2022/03/10 01:50:37;;;;;;;1.70;0.85;;;;;;;7.75;100.00;100909.72;5037269;28;20184;-59
2022/03/10 01:53:03;;;;;;;0.82;0.77;;;;;;;7.70;100.00;100901.47;5028391;28;20160;-56
2022/03/10 01:55:28;;;;;;;9.27;1.23;;;;;;;7.78;100.00;100899.66;5031524;28;20029;-61
2022/03/10 01:57:54;;;;;;;4.03;0.77;;;;;;;7.80;100.00;100895.03;5029076;28;20367;-59
2022/03/10 02:00:19;;;;;;;1.58;0.77;;;;;;;7.94;100.00;100904.13;5030029;28;20052;-61
2022/03/10 02:02:45;;;;;;;2.35;0.90;;;;;;;7.93;100.00;100897.22;5042752;28;20086;-56
2022/03/10 02:05:11;;;;;;;5.75;1.58;;;;;;;7.88;100.00;100891.59;5041673;28;20029;-59
2022/03/10 02:10:23;;;;;;;7.60;1.38;;;;;;;7.93;100.00;100894.56;5028317;28;20072;-59
2022/03/10 02:12:50;;;;;;;3.58;1.02;;;;;;;7.95;100.00;100895.25;5041368;28;20065;-55
2022/03/10 02:18:06;;;;;;;3.28;1.55;;;;;;;8.23;100.00;100893.06;5046481;28;20059;-55
2022/03/10 02:20:32;;;;;;;6.05;1.02;;;;;;;8.24;100.00;100878.91;5035622;28;20033;-55
2022/03/10 02:22:58;;;;;;;2.58;1.13;;;;;;;8.25;100.00;100887.63;5045370;28;20029;-59
2022/03/10 02:25:25;;;;;;;1.30;0.60;;;;;;;8.20;100.00;100887.31;5036866;28;20543;-58
2022/03/10 02:27:52;;;;;;;2.20;0.82;;;;;;;8.18;100.00;100876.06;5030261;28;20033;-57
2022/03/10 02:30:19;;;;;;;2.00;0.60;;;;;;;8.30;100.00;100880.88;5031144;28;20037;-55
2022/03/10 02:32:45;;;;;;;1.23;0.77;;;;;;;8.30;100.00;100875.56;5038068;28;20059;-57
2022/03/10 02:35:10;;;;;;;2.80;1.13;;;;;;;8.24;100.00;100878.06;5031754;28;20372;-56
2022/03/10 02:37:36;;;;;;;3.25;1.35;;;;;;;8.19;100.00;100888.31;5027490;28;20041;-54
2022/03/10 02:40:03;;;;;;;3.58;1.27;;;;;;;8.08;100.00;100890.28;5051357;28;20115;-55
2022/03/10 02:42:31;;;;;;;1.55;0.70;;;;;;;8.01;100.00;100886.66;5040116;28;20154;-55
2022/03/10 02:44:56;;;;;;;1.95;0.60;;;;;;;7.90;100.00;100886.97;5039187;28;20117;-58
2022/03/10 02:47:22;;;;;;;2.80;0.88;;;;;;;7.82;100.00;100892.22;5033543;28;20443;-60
2022/03/10 02:49:47;;;;;;;3.90;0.80;;;;;;;7.78;100.00;100883.81;5027564;28;20033;-58
2022/03/10 02:52:13;;;;;;;4.13;2.78;;;;;;;7.68;100.00;100885.78;5036495;28;20536;-55
2022/03/10 02:54:38;;;;;;;2.53;1.25;;;;;;;7.70;100.00;100877.72;5035028;28;20099;-57
2022/03/10 02:57:04;;;;;;;2.35;0.70;;;;;;;7.65;100.00;100884.28;5035180;28;20040;-56
2022/03/10 02:59:29;;;;;;;2.88;1.23;;;;;;;7.61;100.00;100882.94;5027305;28;20037;-57
2022/03/10 03:01:58;;;;;;;5.60;1.45;;;;;;;7.59;100.00;100881.47;5032787;28;20104;-59
2022/03/10 03:04:25;;;;;;;2.92;1.17;;;;;;;7.58;100.00;100879.81;5028363;28;20036;-55
2022/03/10 03:06:51;;;;;;;2.85;0.82;;;;;;;7.46;100.00;100874.03;5037060;28;20032;-56
2022/03/10 03:09:16;;;;;;;2.33;0.77;;;;;;;7.39;100.00;100868.56;5029035;28;20075;-56
2022/03/10 03:11:42;;;;;;;5.80;2.67;;;;;;;7.40;100.00;100864.94;5034936;28;20061;-59
2022/03/10 03:14:07;;;;;;;2.38;1.38;;;;;;;7.45;100.00;100866.28;5035034;28;20083;-59
2022/03/10 03:16:33;;;;;;;2.88;1.17;;;;;;;7.45;100.00;100859.16;5027524;28;20474;-53
2022/03/10 03:18:58;;;;;;;3.47;1.50;;;;;;;7.50;100.00;100862.16;5033492;28;20555;-60
2022/03/10 03:21:24;;;;;;;4.85;1.05;;;;;;;7.45;100.00;100868.91;5038671;28;20614;-57
2022/03/10 03:23:50;;;;;;;10.80;2.20;;;;;;;7.46;100.00;100867.91;5041183;28;20078;-54
2022/03/10 03:26:15;;;;;;;2.67;1.55;;;;;;;7.48;100.00;100871.22;5034710;28;20051;-57
2022/03/10 03:28:41;;;;;;;4.35;2.03;;;;;;;7.45;100.00;100868.91;5028002;28;20041;-50
2022/03/10 03:31:07;;;;;;;3.58;1.00;;;;;;;7.50;100.00;100880.63;5033046;28;20452;-57
2022/03/10 03:33:32;;;;;;;2.20;1.27;;;;;;;7.46;100.00;100879.31;5026766;28;20029;-59
2022/03/10 03:35:58;;;;;;;4.53;1.42;;;;;;;7.37;100.00;100880.25;5034361;28;20031;-60
2022/03/10 03:38:24;;;;;;;1.33;1.10;;;;;;;7.35;100.00;100885.69;5041658;28;20790;-58
2022/03/10 03:40:50;;;;;;;4.57;2.67;;;;;;;7.26;100.00;100883.19;5033317;28;20028;-59
2022/03/10 03:43:15;;;;;;;2.88;1.48;;;;;;;7.17;100.00;100879.69;5043430;28;20489;-61
2022/03/10 03:45:40;;;;;;;23.98;1.83;;;;;;;7.05;100.00;100888.84;5044575;28;20162;-58
2022/03/10 03:48:06;;;;;;;2.67;1.17;;;;;;;6.92;100.00;100900.69;5031063;28;20043;-57
2022/03/10 03:50:31;;;;;;;4.07;1.35;;;;;;;6.91;100.00;100890.28;5038593;28;20028;-61
2022/03/10 03:52:57;;;;;;;0.90;0.52;;;;;;;6.86;100.00;100900.47;5030430;28;20025;-58
2022/03/10 03:55:22;;;;;;;4.88;1.63;;;;;;;6.71;100.00;100895.78;5026647;28;20037;-57
2022/03/10 03:57:47;;;;;;;4.30;1.48;;;;;;;6.64;100.00;100894.75;5030852;28;20120;-58
2022/03/10 04:00:15;;;;;;;7.10;2.10;;;;;;;6.59;100.00;100896.22;5029196;28;20458;-60
2022/03/10 04:02:42;;;;;;;5.68;1.30;;;;;;;6.47;100.00;100900.88;5032871;28;20042;-59
2022/03/10 04:05:08;;;;;;;3.25;1.70;;;;;;;6.59;100.00;100894.38;5030973;28;20068;-60
2022/03/10 04:07:33;;;;;;;2.25;1.60;;;;;;;6.67;100.00;100898.88;5034238;28;20096;-59
2022/03/10 04:09:58;;;;;;;8.65;1.90;;;;;;;6.78;100.00;100898.63;5042050;28;20021;-56
2022/03/10 04:12:24;;;;;;;3.03;1.90;;;;;;;6.91;100.00;100895.56;5033867;28;20522;-57
2022/03/10 04:14:49;;;;;;;3.88;2.15;;;;;;;6.99;100.00;100898.22;5034386;28;20513;-55
2022/03/10 04:17:14;;;;;;;2.10;1.42;;;;;;;7.08;100.00;100881.47;5038951;28;20048;-58
2022/03/10 04:19:40;;;;;;;6.13;2.47;;;;;;;7.12;100.00;100888.06;5031942;28;20020;-57
2022/03/10 04:22:05;;;;;;;1.45;1.35;;;;;;;7.15;100.00;100886.94;5037104;28;20033;-58
2022/03/10 04:24:31;;;;;;;8.30;3.55;;;;;;;7.22;100.00;100887.94;5037030;28;20142;-55
2022/03/10 04:26:56;;;;;;;4.13;2.58;;;;;;;7.30;100.00;100887.16;5026124;28;20108;-59
2022/03/10 04:29:22;;;;;;;5.55;2.22;;;;;;;7.33;100.00;100889.47;5037945;28;20471;-55
2022/03/10 04:31:47;;;;;;;5.35;2.30;;;;;;;7.37;100.00;100890.81;5031771;28;20051;-57
2022/03/10 04:34:13;;;;;;;4.18;1.70;;;;;;;7.39;100.00;100894.13;5032376;28;20121;-59
2022/03/10 04:36:39;;;;;;;7.90;2.00;;;;;;;7.38;100.00;100898.59;5027076;28;20175;-58
2022/03/10 04:39:04;;;;;;;4.95;2.45;;;;;;;7.44;100.00;100899.75;5025867;28;20188;-59
2022/03/10 04:41:30;;;;;;;4.35;1.95;;;;;;;7.44;100.00;100894.47;5029632;28;20032;-55
2022/03/10 04:43:56;;;;;;;6.45;2.55;;;;;;;7.43;100.00;100890.16;5032239;28;20069;-56
2022/03/10 04:46:22;;;;;;;4.85;3.28;;;;;;;7.40;100.00;100896.59;5031615;28;20064;-57
2022/03/10 04:48:48;;;;;;;13.55;4.50;;;;;;;7.42;100.00;100893.81;5025915;28;20192;-57
2022/03/10 04:51:13;;;;;;;5.80;3.22;;;;;;;7.41;100.00;100892.16;5045587;28;20512;-56
2022/03/10 04:53:38;;;;;;;4.35;2.63;;;;;;;7.38;100.00;100881.91;5042811;28;20029;-60
2022/03/10 04:56:04;;;;;;;4.78;2.33;;;;;;;7.28;100.00;100883.84;5035755;28;20558;-57
2022/03/10 04:58:30;;;;;;;3.13;2.30;;;;;;;7.19;100.00;100885.63;5037670;28;20514;-57
2022/03/10 05:00:55;;;;;;;8.18;2.75;;;;;;;7.11;100.00;100891.69;5042478;28;20120;-58
2022/03/10 05:03:20;;;;;;;9.98;3.03;;;;;;;7.07;100.00;100894.81;5027571;28;20552;-59
2022/03/10 05:05:49;;;;;;;8.18;2.90;;;;;;;7.11;100.00;100896.97;5033541;28;20036;-59
2022/03/10 05:08:14;;;;;;;6.32;2.63;;;;;;;7.15;100.00;100906.25;5036868;28;20039;-58
2022/03/10 05:10:39;;;;;;;4.72;2.22;;;;;;;7.17;100.00;100909.53;5036663;28;20215;-55
2022/03/10 05:13:05;;;;;;;9.00;2.03;;;;;;;7.17;100.00;100900.78;5030612;28;20033;-57
2022/03/10 05:15:31;;;;;;;12.32;3.45;;;;;;;7.18;100.00;100905.09;5038791;28;20029;-58
2022/03/10 05:18:01;;;;;;;5.20;2.50;;;;;;;7.21;100.00;100907.41;5030215;28;20124;-60
2022/03/10 05:20:27;;;;;;;5.38;2.25;;;;;;;7.22;100.00;100894.03;5029002;28;20037;-59
2022/03/10 05:22:54;;;;;;;5.22;2.47;;;;;;;7.29;100.00;100909.25;5029541;28;20043;-61
2022/03/10 05:25:21;;;;;;;12.38;2.92;;;;;;;7.31;100.00;100904.66;5029214;28;20110;-58
2022/03/10 05:27:47;;;;;;;8.30;2.80;;;;;;;7.29;100.00;100898.69;5038015;28;20508;-57
2022/03/10 05:30:14;;;;;;;4.20;2.53;;;;;;;7.30;100.00;100903.81;5046143;28;20033;-59
2022/03/10 05:32:40;;;;;;;4.75;3.10;;;;;;;7.37;100.00;100906.63;5037260;28;20061;-59
2022/03/10 05:35:07;;;;;;;4.35;3.03;;;;;;;7.38;100.00;100909.13;5028333;28;20033;-59
2022/03/10 05:37:35;;;;;;;9.48;2.92;;;;;;;7.39;100.00;100915.22;5034485;28;20456;-60
2022/03/10 05:40:02;;;;;;;5.18;3.20;;;;;;;7.37;100.00;100902.19;5036529;28;20038;-57
2022/03/10 05:42:28;;;;;;;6.85;2.65;;;;;;;7.37;100.00;100902.19;5036622;28;20079;-59
2022/03/10 05:44:53;;;;;;;3.40;2.65;;;;;;;7.34;100.00;100904.31;5030186;28;20486;-59
2022/03/10 05:47:18;;;;;;;5.20;2.80;;;;;;;7.33;100.00;100913.22;5032768;28;20040;-57
2022/03/10 05:49:44;;;;;;;5.57;2.90;;;;;;;7.35;100.00;100909.44;5033907;28;20024;-59
2022/03/10 05:52:09;;;;;;;6.00;3.35;;;;;;;7.36;100.00;100903.19;5036651;28;20038;-56
2022/03/10 05:54:35;;;;;;;4.93;2.35;;;;;;;7.38;100.00;100913.56;5042878;28;20045;-59
2022/03/10 05:57:01;;;;;;;4.88;3.13;;;;;;;7.39;100.00;100910.78;5028480;28;20037;-55
2022/03/10 05:59:26;;;;;;;7.78;2.38;;;;;;;7.39;100.00;100908.13;5040135;28;20433;-56
2022/03/10 06:01:51;;;;;;;5.40;3.28;;;;;;;7.41;100.00;100908.81;5038425;28;20066;-55
2022/03/10 06:04:16;;;;;;;12.93;3.38;;;;;;;7.43;100.00;100916.53;5034002;28;20101;-57
2022/03/10 06:06:44;;;;;;;7.68;3.65;;;;;;;7.43;100.00;100917.41;5042504;28;20123;-60
2022/03/10 06:09:10;;;;;;;14.88;3.67;;;;;;;7.42;100.00;100915.72;5042713;28;20032;-56
2022/03/10 06:11:36;;;;;;;8.48;2.78;;;;;;;7.39;100.00;100909.94;5038673;28;20025;-59
2022/03/10 06:14:01;;;;;;;9.40;2.60;;;;;;;7.34;100.00;100912.25;5039352;28;20041;-56
2022/03/10 06:16:27;;;;;;;10.95;4.28;;;;;;;7.27;100.00;100927.03;5031638;28;20029;-53
2022/03/10 06:18:52;;;;;;;10.35;2.67;;;;;;;7.18;100.00;100923.56;5046408;28;20032;-55
2022/03/10 06:21:18;;;;;;;4.88;2.80;;;;;;;7.15;100.00;100927.34;5028578;28;20082;-54
2022/03/10 06:23:43;;;;;;;4.70;3.47;;;;;;;7.15;100.00;100932.59;5035192;28;20070;-55
2022/03/10 06:26:09;;;;;;;10.40;3.17;;;;;;;7.20;100.00;100932.97;5030380;28;20415;-58
2022/03/10 06:28:34;;;;;;;5.53;2.53;;;;;;;7.19;100.00;100936.56;5041588;28;20492;-57
2022/03/10 06:30:59;;;;;;;12.63;3.00;;;;;;;7.22;100.00;100936.25;5035351;28;20392;-60
2022/03/10 06:33:25;;;;;;;4.03;2.33;;;;;;;7.27;100.00;100932.31;5032389;28;20068;-59
2022/03/10 06:35:51;;;;;;;9.50;2.45;;;;;;;7.27;100.00;100941.06;5026869;28;20124;-56
2022/03/10 06:38:16;;;;;;;5.70;3.80;;;;;;;7.29;100.00;100943.53;5036380;28;20025;-58
2022/03/10 06:40:42;;;;;;;4.22;2.92;;;;;;;7.31;100.00;100947.69;5036600;28;20037;-58
2022/03/10 06:43:07;;;;;;;9.88;2.90;;;;;;;7.35;100.00;100946.34;5032742;28;20107;-59
2022/03/10 06:45:32;;;;;;;7.80;3.10;;;;;;;7.41;100.00;100942.28;5031087;28;20052;-58
2022/03/10 06:47:58;;;;;;;4.68;2.42;;;;;;;7.43;100.00;100932.38;5030123;28;20112;-55
2022/03/10 06:50:24;;;;;;;4.22;3.17;;;;;;;7.45;100.00;100932.22;5032443;28;20025;-53
2022/03/10 06:52:52;;;;;;;5.30;2.88;;;;;;;7.41;100.00;100935.19;5029258;28;20075;-53
2022/03/10 06:55:19;;;;;;;7.97;2.72;;;;;;;7.42;100.00;100941.28;5033029;28;20032;-55
2022/03/10 06:57:44;;;;;;;4.82;2.58;;;;;;;7.42;100.00;100944.75;5033974;28;20115;-57
2022/03/10 07:00:10;;;;;;;5.53;3.45;;;;;;;7.48;100.00;100932.72;5033360;28;20036;-58
2022/03/10 07:02:35;;;;;;;4.10;2.42;;;;;;;7.51;100.00;100929.78;5036810;28;20047;-60
2022/03/10 07:05:02;;;;;;;7.45;3.30;;;;;;;7.51;100.00;100940.34;5035537;28;20464;-56
2022/03/10 07:07:27;;;;;;;8.38;3.00;;;;;;;7.50;100.00;100938.69;5035918;28;20052;-56
2022/03/10 07:09:52;;;;;;;7.50;2.83;;;;;;;7.45;100.00;100938.31;5042765;28;20549;-55
2022/03/10 07:12:18;;;;;;;6.63;2.72;;;;;;;7.46;100.00;100939.16;5031009;28;20033;-57
2022/03/10 07:14:43;;;;;;;5.88;3.38;;;;;;;7.46;100.00;100940.00;5035090;28;20030;-57
2022/03/10 07:17:08;;;;;;;10.20;4.65;;;;;;;7.44;100.00;100949.88;5038582;28;20124;-58
2022/03/10 07:19:34;;;;;;;6.35;3.13;;;;;;;7.41;100.00;100953.66;5032347;28;20029;-59
2022/03/10 07:21:59;;;;;;;6.93;3.75;;;;;;;7.44;100.00;100960.44;5037904;28;20086;-58
2022/03/10 07:24:25;;;;;;;8.63;3.97;;;;;;;7.37;100.00;100956.75;5037762;28;20124;-55
2022/03/10 07:26:51;;;;;;;6.45;2.85;;;;;;;7.33;100.00;100963.31;5037850;28;20030;-58
2022/03/10 07:29:16;;;;;;;8.02;3.45;;;;;;;7.32;100.00;100959.88;5036557;28;20094;-58
2022/03/10 07:31:42;;;;;;;8.82;3.50;;;;;;;7.37;100.00;100964.69;5046240;28;20068;-59
2022/03/10 07:34:07;;;;;;;8.82;3.17;;;;;;;7.33;100.00;100963.31;5032099;28;20136;-59
2022/03/10 07:36:32;;;;;;;8.98;3.38;;;;;;;7.31;100.00;100965.31;5030666;28;20136;-56
2022/03/10 07:38:58;;;;;;;3.95;2.75;;;;;;;7.29;100.00;100967.28;5033109;28;20041;-57
2022/03/10 07:41:23;;;;;;;10.25;3.50;;;;;;;7.35;100.00;100971.91;5038897;28;20025;-56
2022/03/10 07:43:49;;;;;;;5.40;3.60;;;;;;;7.42;100.00;100968.50;5035791;28;20317;-57
2022/03/10 07:46:14;;;;;;;8.85;3.20;;;;;;;7.38;100.00;100967.16;5034050;28;20091;-57
2022/03/10 07:48:39;;;;;;;5.93;3.58;;;;;;;7.45;100.00;100975.25;5031847;28;20040;-59
2022/03/10 07:51:05;;;;;;;6.95;3.17;;;;;;;7.45;100.00;100970.00;5028298;28;20116;-59
2022/03/10 07:53:30;;;;;;;6.45;3.40;;;;;;;7.50;100.00;100969.53;5033391;28;20029;-59
2022/03/10 07:55:56;;;;;;;5.78;2.42;;;;;;;7.58;100.00;100973.00;5032248;28;20032;-57
2022/03/10 07:58:25;;;;;;;4.82;2.88;;;;;;;7.72;100.00;100966.31;5030635;28;20045;-61
2022/03/10 08:00:54;;;;;;;4.28;2.42;;;;;;;7.70;100.00;100970.09;5041098;28;20039;-58
2022/03/10 08:03:21;;;;;;;7.50;3.13;;;;;;;7.69;100.00;100974.53;5037096;28;20029;-57
2022/03/10 08:05:47;;;;;;;8.32;2.85;;;;;;;7.68;100.00;100985.25;5037803;28;20037;-57
2022/03/10 08:08:13;;;;;;;7.93;2.13;;;;;;;7.70;100.00;100972.72;5032698;28;20388;-57
2022/03/10 08:10:39;;;;;;;8.30;3.45;;;;;;;7.78;100.00;100970.13;5029555;28;20112;-58
2022/03/10 08:13:05;;;;;;;6.57;3.45;;;;;;;7.79;100.00;100969.13;5030418;28;20525;-56
2022/03/10 08:15:30;;;;;;;7.13;3.42;;;;;;;7.84;100.00;100966.81;5028415;28;20029;-59
2022/03/10 08:17:56;;;;;;;11.15;3.25;;;;;;;7.93;100.00;100968.50;5031056;28;20036;-60
2022/03/10 08:20:21;;;;;;;5.95;2.53;;;;;;;7.97;100.00;100971.63;5033340;28;20399;-57
2022/03/10 08:22:46;;;;;;;5.50;2.17;;;;;;;8.12;100.00;100974.47;5025158;28;20033;-55
2022/03/10 08:25:12;;;;;;;5.32;3.38;;;;;;;8.18;100.00;100974.63;5027714;28;20036;-57
2022/03/10 08:27:38;;;;;;;8.82;3.10;;;;;;;8.29;100.00;100973.50;5035321;28;20521;-59
2022/03/10 08:30:04;;;;;;;7.15;2.33;;;;;;;8.38;100.00;100980.44;5031680;28;20036;-57
2022/03/10 08:32:30;;;;;;;8.27;2.05;;;;;;;8.42;100.00;100976.53;5042827;28;20024;-60
2022/03/10 08:34:55;;;;;;;6.88;2.47;;;;;;;8.59;100.00;100976.50;5046350;28;20108;-59
2022/03/10 08:37:21;;;;;;;5.10;2.85;;;;;;;8.74;100.00;100977.50;5037512;28;20133;-58
2022/03/10 08:39:46;;;;;;;3.88;3.42;;;;;;;8.90;100.00;100974.00;5032792;28;20029;-58
2022/03/10 08:42:11;;;;;;;4.93;3.05;;;;;;;8.90;100.00;100968.72;5037874;28;20129;-60
2022/03/10 08:44:37;;;;;;;4.22;2.65;;;;;;;9.10;100.00;100961.25;5036371;28;20147;-61
2022/03/10 08:47:03;;;;;;;4.72;1.95;;;;;;;9.28;100.00;100948.59;5025153;28;20037;-59
2022/03/10 08:49:28;;;;;;;5.75;2.80;;;;;;;9.41;100.00;100952.53;5039352;28;20040;-58
2022/03/10 08:51:54;;;;;;;11.27;2.50;;;;;;;9.51;100.00;100950.50;5042098;28;20032;-60
2022/03/10 08:54:20;;;;;;;6.95;3.40;;;;;;;9.61;100.00;100936.06;5056261;28;20025;-57
2022/03/10 08:56:45;;;;;;;6.65;2.13;;;;;;;9.75;100.00;100942.44;5036430;28;20036;-58
2022/03/10 08:59:11;;;;;;;8.32;2.47;;;;;;;9.86;100.00;100937.72;5043343;28;20090;-55
2022/03/10 09:01:36;;;;;;;9.35;3.10;;;;;;;9.94;100.00;100941.19;5047652;28;20028;-59
2022/03/10 09:04:02;;;;;;;3.63;2.00;;;;;;;10.00;100.00;100931.69;5043443;28;20028;-60
2022/03/10 09:06:29;;;;;;;4.82;2.10;;;;;;;10.13;100.00;100937.22;5043145;28;20025;-56
2022/03/10 09:08:54;;;;;;;6.93;3.15;;;;;;;10.10;100.00;100940.25;5050937;28;20485;-57
2022/03/10 09:11:19;;;;;;;6.10;3.60;;;;;;;10.15;100.00;100929.13;5051061;28;20087;-58
2022/03/10 09:13:48;;;;;;;4.25;1.73;;;;;;;10.18;100.00;100926.91;5041835;28;20029;-56
2022/03/10 09:16:18;;;;;;;2.92;1.77;;;;;;;10.35;100.00;100934.75;5047405;28;20063;-58
2022/03/10 09:18:45;;;;;;;2.75;2.38;;;;;;;10.51;100.00;100932.00;5049547;28;20090;-55
2022/03/10 09:21:11;;;;;;;3.17;1.95;;;;;;;10.54;100.00;100936.94;5050536;28;20144;-54
2022/03/10 09:23:37;;;;;;;8.75;3.15;;;;;;;10.63;100.00;100935.84;5050539;28;20033;-62
2022/03/10 09:26:02;;;;;;;6.30;2.13;;;;;;;10.72;100.00;100927.81;5035552;28;20028;-58
2022/03/10 09:28:28;;;;;;;3.45;1.77;;;;;;;10.74;100.00;100928.44;5051131;28;20032;-60
2022/03/10 09:30:53;;;;;;;6.75;1.77;;;;;;;10.91;100.00;100929.94;5043958;28;20494;-58
2022/03/10 09:33:18;;;;;;;6.03;2.25;;;;;;;11.03;100.00;100928.47;5047475;28;20028;-61
2022/03/10 09:35:44;;;;;;;4.95;2.00;;;;;;;11.27;100.00;100927.38;5035621;28;20040;-56
2022/03/10 09:38:09;;;;;;;8.77;3.03;;;;;;;11.48;100.00;100929.25;5043587;28;20080;-61
2022/03/10 09:40:34;;;;;;;7.32;1.83;;;;;;;11.70;100.00;100922.16;5052441;28;20115;-62
2022/03/10 09:43:00;;;;;;;5.13;2.20;;;;;;;11.84;100.00;100914.34;5048964;28;20118;-60
2022/03/10 09:45:29;;;;;;;2.38;1.52;;;;;;;11.74;100.00;100917.28;5036990;28;20474;-60
2022/03/10 09:47:55;;;;;;;6.60;1.80;;;;;;;11.53;100.00;100912.78;5045739;28;20159;-60
2022/03/10 09:50:20;;;;;;;4.13;2.40;;;;;;;11.44;100.00;100921.88;5057692;28;20044;-62
2022/03/10 09:52:46;;;;;;;6.40;2.25;;;;;;;11.31;100.00;100930.50;5048609;28;20025;-57
2022/03/10 09:55:14;;;;;;;5.85;2.53;;;;;;;11.36;100.00;100922.78;5037548;28;20120;-59
2022/03/10 09:57:42;;;;;;;6.00;2.38;;;;;;;11.45;100.00;100929.63;5038456;28;20041;-62
2022/03/10 10:00:10;;;;;;;5.63;1.75;;;;;;;11.47;100.00;100917.00;5025556;28;20435;-61
2022/03/10 10:02:37;;;;;;;5.07;1.48;;;;;;;11.55;100.00;100919.53;5038483;28;20032;-62
2022/03/10 10:05:17;;;;;;;7.30;1.63;;;;;;;11.60;100.00;100924.31;5038879;28;20057;-59
2022/03/10 10:07:59;;;;;;;3.95;1.50;;;;;;;11.64;100.00;100919.44;5041712;28;20038;-61
2022/03/10 10:10:29;;;;;;;4.60;2.30;;;;;;;11.68;100.00;100907.44;5038874;28;20035;-53
2022/03/10 10:12:54;;;;;;;5.97;1.65;;;;;;;11.84;100.00;100927.63;5034626;28;20029;-62
2022/03/10 10:15:20;;;;;;;4.15;1.63;;;;;;;11.90;100.00;100921.56;5040666;28;20029;-60
2022/03/10 10:17:55;;;;;;;4.15;1.65;;;;;;;11.96;100.00;100923.50;5031308;28;20192;-59
2022/03/10 10:20:21;;;;;;;2.60;1.52;;;;;;;12.00;100.00;100928.25;5042190;28;20162;-60
2022/03/10 10:22:48;;;;;;;6.75;2.08;;;;;;;12.09;100.00;100918.31;5043282;28;20464;-61
2022/03/10 10:25:20;;;;;;;5.45;2.00;;;;;;;12.10;100.00;100917.28;5042267;28;20032;-60
2022/03/10 10:27:46;;;;;;;6.85;1.63;;;;;;;12.08;100.00;100910.50;5043708;28;20040;-60
2022/03/10 10:30:12;;;;;;;4.80;1.88;;;;;;;11.99;100.00;100902.66;5039329;28;20131;-59
2022/03/10 10:32:52;;;;;;;4.55;1.42;;;;;;;11.94;100.00;100897.09;5040027;28;20399;-60
2022/03/10 10:35:20;;;;;;;4.10;1.92;;;;;;;11.89;100.00;100910.13;5034930;28;20168;-60
2022/03/10 10:37:54;;;;;;;3.58;1.50;;;;;;;11.94;100.00;100897.09;5046940;28;20044;-58
2022/03/10 10:40:21;;;;;;;8.55;1.33;;;;;;;12.22;100.00;100899.00;5045599;28;20037;-63
2022/03/10 10:42:47;;;;;;;3.55;1.60;;;;;;;12.52;100.00;100904.97;5046915;28;20115;-61
2022/03/10 10:45:36;;;;;;;4.40;1.60;;;;;;;12.50;100.00;100903.53;5044127;28;20123;-62
2022/03/10 10:48:12;;;;;;;6.22;2.22;;;;;;;12.39;100.00;100894.22;5056935;28;20040;-58
2022/03/10 10:50:41;;;;;;;6.32;1.42;;;;;;;12.51;100.00;100897.19;5031701;28;20037;-59
2022/03/10 10:53:08;;;;;;;4.53;2.50;;;;;;;12.53;100.00;100898.63;5038740;28;20108;-61
2022/03/10 10:55:36;;;;;;;6.97;1.77;;;;;;;12.67;100.00;100891.56;5027893;28;20134;-60
2022/03/10 10:58:11;;;;;;;3.10;2.20;;;;;;;12.54;100.00;100892.28;5050222;28;20052;-61
2022/03/10 11:00:45;;;;;;;5.47;1.70;;;;;;;12.30;100.00;100877.59;5042682;28;20029;-60
2022/03/10 11:03:28;;;;;;;1.83;1.52;;;;;;;12.19;100.00;100878.94;5034624;28;20399;-62
2022/03/10 11:05:54;;;;;;;3.88;1.42;;;;;;;12.38;100.00;100882.75;5033673;28;20140;-60
2022/03/10 11:08:21;;;;;;;5.68;1.55;;;;;;;12.40;100.00;100875.41;5028377;28;20021;-62
2022/03/10 11:10:48;;;;;;;6.18;1.73;;;;;;;12.30;100.00;100874.94;5046945;28;20099;-60
2022/03/10 11:13:13;;;;;;;4.03;1.30;;;;;;;12.35;100.00;100871.69;5054553;28;20041;-63
2022/03/10 11:15:42;;;;;;;2.80;1.55;;;;;;;12.51;100.00;100871.38;5037910;28;20083;-62
2022/03/10 11:18:10;;;;;;;3.50;1.73;;;;;;;12.72;100.00;100867.84;5048601;28;20120;-62
2022/03/10 11:20:38;;;;;;;7.13;1.85;;;;;;;12.59;100.00;100871.25;5042587;28;20028;-63
2022/03/10 11:23:25;;;;;;;4.00;1.65;;;;;;;12.50;100.00;100868.94;5052799;28;20509;-62
2022/03/10 11:25:58;;;;;;;5.55;1.67;;;;;;;12.74;100.00;100868.47;5031534;28;20863;-61